createdAt,value
2023-05-17T00:00:52.833Z,14.60
2023-05-17T00:03:21.108Z,14.60
2023-05-17T00:05:48.954Z,14.57
2023-05-17T00:08:16.727Z,14.56
2023-05-17T00:10:44.410Z,14.57
2023-05-17T00:13:12.109Z,14.60
2023-05-17T00:15:39.938Z,14.61
2023-05-17T00:18:07.857Z,14.59
2023-05-17T00:20:36.738Z,14.59
2023-05-17T00:23:04.660Z,14.60
2023-05-17T00:25:32.639Z,14.67
2023-05-17T00:28:00.707Z,14.70
2023-05-17T00:30:28.459Z,14.70
2023-05-17T00:32:56.196Z,14.69
2023-05-17T00:35:25.173Z,14.72
2023-05-17T00:37:52.999Z,14.71
2023-05-17T00:40:20.864Z,14.74
2023-05-17T00:42:48.613Z,14.72
2023-05-17T00:45:16.320Z,14.69
2023-05-17T00:47:44.213Z,14.68
2023-05-17T00:50:12.418Z,14.69
2023-05-17T00:52:40.124Z,14.73
2023-05-17T00:55:07.946Z,14.78
2023-05-17T00:57:36.019Z,14.79
2023-05-17T01:00:03.885Z,14.77
2023-05-17T01:02:31.882Z,14.77
2023-05-17T01:04:59.946Z,14.78
2023-05-17T01:07:27.794Z,14.83
2023-05-17T01:09:55.654Z,14.84
2023-05-17T01:12:23.536Z,14.84
2023-05-17T01:14:52.414Z,14.85
2023-05-17T01:17:20.307Z,14.86
2023-05-17T01:19:48.191Z,14.88
2023-05-17T01:22:16.128Z,14.90
2023-05-17T01:24:44.904Z,14.88
2023-05-17T01:27:12.672Z,14.86
2023-05-17T01:29:40.539Z,14.85
2023-05-17T01:32:08.710Z,14.85
2023-05-17T01:34:36.574Z,14.91
2023-05-17T01:37:04.343Z,14.92
2023-05-17T01:39:32.128Z,14.91
2023-05-17T01:41:59.868Z,14.90
2023-05-17T01:44:27.632Z,14.87
2023-05-17T01:46:55.396Z,14.85
2023-05-17T01:49:23.166Z,14.86
2023-05-17T01:51:50.927Z,14.82
2023-05-17T01:54:18.690Z,14.77
2023-05-17T01:56:46.661Z,14.75
2023-05-17T01:59:14.425Z,14.74
2023-05-17T02:01:42.187Z,14.79
2023-05-17T02:04:10.129Z,14.81
2023-05-17T02:06:38.226Z,14.80
2023-05-17T02:09:05.998Z,14.81
2023-05-17T02:11:33.865Z,14.80
2023-05-17T02:14:01.726Z,14.83
2023-05-17T02:16:29.541Z,14.87
2023-05-17T02:18:57.542Z,14.86
2023-05-17T02:21:25.639Z,14.82
2023-05-17T02:23:53.397Z,14.81
2023-05-17T02:26:21.168Z,14.79
2023-05-17T02:28:48.932Z,14.78
2023-05-17T02:31:16.695Z,14.82
2023-05-17T02:33:44.782Z,14.83
2023-05-17T02:36:12.632Z,14.83
2023-05-17T02:38:40.509Z,14.80
2023-05-17T02:41:08.207Z,14.78
2023-05-17T02:43:36.132Z,14.77
2023-05-17T02:46:03.908Z,14.78
2023-05-17T02:48:32.077Z,14.78
2023-05-17T02:50:59.834Z,14.77
2023-05-17T02:53:27.601Z,14.72
2023-05-17T02:55:58.273Z,14.68
2023-05-17T02:58:26.096Z,14.69
2023-05-17T03:00:53.748Z,14.66
2023-05-17T03:03:21.652Z,14.62
2023-05-17T03:05:49.586Z,14.61
2023-05-17T03:08:17.351Z,14.60
2023-05-17T03:10:45.116Z,14.67
2023-05-17T03:13:12.884Z,14.69
2023-05-17T03:15:41.070Z,14.66
2023-05-17T03:18:08.981Z,14.59
2023-05-17T03:20:36.898Z,14.51
2023-05-17T03:23:04.655Z,14.51
2023-05-17T03:25:32.422Z,14.53
2023-05-17T03:28:00.292Z,14.52
2023-05-17T03:30:28.115Z,14.44
2023-05-17T03:32:56.312Z,14.41
2023-05-17T03:35:24.225Z,14.44
2023-05-17T03:37:52.081Z,14.52
2023-05-17T03:40:20.026Z,14.58
2023-05-17T03:42:47.999Z,14.57
2023-05-17T03:45:16.695Z,14.54
2023-05-17T03:47:44.435Z,14.50
2023-05-17T03:50:12.426Z,14.51
2023-05-17T03:52:42.293Z,14.51
2023-05-17T03:55:10.098Z,14.48
2023-05-17T03:57:38.061Z,14.49
2023-05-17T04:00:09.311Z,14.54
2023-05-17T04:02:37.088Z,14.61
2023-05-17T04:05:05.185Z,14.63
2023-05-17T04:07:33.116Z,14.63
2023-05-17T04:10:03.245Z,14.65
2023-05-17T04:12:31.009Z,14.69
2023-05-17T04:14:58.865Z,14.71
2023-05-17T04:17:26.657Z,14.70
2023-05-17T04:19:54.542Z,14.71
2023-05-17T04:22:22.313Z,14.73
2023-05-17T04:24:50.133Z,14.72
2023-05-17T04:27:17.892Z,14.63
2023-05-17T04:29:45.862Z,14.57
2023-05-17T04:32:14.445Z,14.56
2023-05-17T04:34:43.540Z,14.52
2023-05-17T04:37:11.419Z,14.53
2023-05-17T04:39:39.273Z,14.57
2023-05-17T04:42:07.037Z,14.63
2023-05-17T04:44:34.803Z,14.71
2023-05-17T04:47:03.080Z,14.75
2023-05-17T04:49:30.949Z,14.75
2023-05-17T04:51:58.809Z,14.73
2023-05-17T04:54:26.681Z,14.69
2023-05-17T04:56:54.445Z,14.70
2023-05-17T04:59:22.330Z,14.67
2023-05-17T05:01:50.176Z,14.59
2023-05-17T05:04:18.004Z,14.52
2023-05-17T05:06:46.011Z,14.45
2023-05-17T05:09:13.893Z,14.49
2023-05-17T05:11:41.648Z,14.58
2023-05-17T05:14:09.518Z,14.62
2023-05-17T05:16:37.577Z,14.61
2023-05-17T05:19:05.975Z,14.53
2023-05-17T05:21:34.046Z,14.42
2023-05-17T05:24:01.901Z,14.36
2023-05-17T05:26:29.765Z,14.34
2023-05-17T05:28:57.731Z,14.31
2023-05-17T05:31:25.712Z,14.29
2023-05-17T05:33:53.505Z,14.27
2023-05-17T05:36:21.330Z,14.24
2023-05-17T05:38:49.201Z,14.32
2023-05-17T05:41:17.072Z,14.41
2023-05-17T05:43:44.828Z,14.46
2023-05-17T05:46:12.592Z,14.44
2023-05-17T05:48:42.261Z,14.38
2023-05-17T05:51:11.094Z,14.32
2023-05-17T05:53:38.868Z,14.30
2023-05-17T05:56:06.720Z,14.28
2023-05-17T05:58:34.528Z,14.22
2023-05-17T06:01:04.672Z,14.18
2023-05-17T06:03:33.809Z,14.15
2023-05-17T06:06:01.678Z,14.18
2023-05-17T06:08:29.847Z,14.18
2023-05-17T06:10:57.618Z,14.13
2023-05-17T06:13:25.426Z,14.11
2023-05-17T06:15:53.102Z,14.11
2023-05-17T06:18:20.841Z,14.12
2023-05-17T06:20:48.721Z,14.08
2023-05-17T06:23:17.177Z,14.00
2023-05-17T06:25:44.873Z,13.94
2023-05-17T06:28:12.614Z,13.92
2023-05-17T06:30:40.272Z,13.97
2023-05-17T06:33:07.980Z,13.98
2023-05-17T06:35:51.756Z,13.93
2023-05-17T06:38:23.674Z,13.91
2023-05-17T06:40:51.334Z,13.87
2023-05-17T06:43:18.982Z,13.87
2023-05-17T06:45:46.637Z,13.86
2023-05-17T06:48:14.447Z,13.85
2023-05-17T06:50:42.251Z,13.83
2023-05-17T06:53:09.936Z,13.83
2023-05-17T06:55:37.669Z,13.88
2023-05-17T06:58:05.374Z,13.90
2023-05-17T07:00:33.331Z,13.93
2023-05-17T07:03:01.338Z,13.94
2023-05-17T07:05:31.068Z,13.95
2023-05-17T07:07:59.257Z,14.00
2023-05-17T07:10:27.124Z,14.03
2023-05-17T07:12:54.961Z,14.05
2023-05-17T07:15:22.827Z,14.04
2023-05-17T07:17:50.624Z,14.03
2023-05-17T07:20:18.461Z,14.02
2023-05-17T07:22:46.222Z,14.01
2023-05-17T07:25:15.338Z,13.97
2023-05-17T07:27:43.088Z,13.93
2023-05-17T07:30:10.950Z,13.93
2023-05-17T07:32:38.721Z,13.95
2023-05-17T07:35:06.786Z,13.95
2023-05-17T07:37:34.511Z,13.92
2023-05-17T07:40:02.317Z,13.89
2023-05-17T07:42:30.485Z,13.88
2023-05-17T07:44:59.624Z,13.92
2023-05-17T07:47:27.489Z,13.92
2023-05-17T07:49:55.632Z,13.92
2023-05-17T07:52:24.582Z,13.89
2023-05-17T07:54:52.487Z,13.87
2023-05-17T07:57:20.356Z,13.87
2023-05-17T07:59:48.216Z,13.92
2023-05-17T08:02:15.982Z,13.90
2023-05-17T08:04:43.810Z,13.83
2023-05-17T08:07:11.723Z,13.77
2023-05-17T08:09:41.680Z,13.77
2023-05-17T08:12:09.498Z,13.78
2023-05-17T08:14:37.317Z,13.73
2023-05-17T08:17:04.984Z,13.67
2023-05-17T08:19:32.980Z,13.66
2023-05-17T08:22:00.892Z,13.69
2023-05-17T08:24:28.558Z,13.68
2023-05-17T08:26:56.714Z,13.63
2023-05-17T08:29:24.518Z,13.59
2023-05-17T08:31:52.756Z,13.58
2023-05-17T08:34:20.463Z,13.62
2023-05-17T08:36:48.264Z,13.69
2023-05-17T08:39:16.464Z,13.71
2023-05-17T08:41:44.129Z,13.73
2023-05-17T08:44:11.834Z,13.75
2023-05-17T08:46:40.146Z,13.79
2023-05-17T08:49:07.882Z,13.79
2023-05-17T08:51:35.880Z,13.81
2023-05-17T08:54:06.503Z,13.87
2023-05-17T08:56:35.904Z,13.94
2023-05-17T08:59:03.671Z,13.99
2023-05-17T09:01:33.202Z,14.06
2023-05-17T09:04:01.261Z,14.12
2023-05-17T09:06:29.114Z,14.13
2023-05-17T09:08:58.691Z,14.17
2023-05-17T09:11:27.247Z,14.21
2023-05-17T09:13:55.069Z,14.18
2023-05-17T09:16:22.838Z,14.11
2023-05-17T09:18:50.721Z,14.02
2023-05-17T09:21:18.669Z,13.96
2023-05-17T09:23:51.437Z,13.96
2023-05-17T09:26:25.884Z,14.03
2023-05-17T09:28:53.842Z,14.06
2023-05-17T09:31:21.820Z,14.06
2023-05-17T09:33:49.622Z,14.08
2023-05-17T09:36:18.467Z,14.11
2023-05-17T09:38:46.438Z,14.13
2023-05-17T09:41:14.201Z,14.12
2023-05-17T09:43:41.971Z,14.04
2023-05-17T09:46:09.827Z,14.01
2023-05-17T09:48:37.794Z,14.04
2023-05-17T09:51:05.667Z,14.09
2023-05-17T09:53:33.439Z,14.02
2023-05-17T09:56:01.197Z,13.93
2023-05-17T09:58:32.035Z,13.84
2023-05-17T10:00:59.902Z,13.80
2023-05-17T10:03:28.069Z,13.86
2023-05-17T10:05:56.043Z,13.90
2023-05-17T10:08:26.057Z,13.87
2023-05-17T10:10:53.820Z,13.84
2023-05-17T10:13:22.647Z,13.79
2023-05-17T10:15:50.480Z,13.83
2023-05-17T10:18:18.343Z,13.81
2023-05-17T10:20:46.213Z,13.78
2023-05-17T10:23:13.977Z,13.75
2023-05-17T10:25:41.824Z,13.73
2023-05-17T10:28:09.537Z,13.73
2023-05-17T10:30:37.480Z,13.72
2023-05-17T10:33:05.226Z,13.73
2023-05-17T10:35:33.070Z,13.74
2023-05-17T10:38:00.996Z,13.78
2023-05-17T10:40:28.650Z,13.82
2023-05-17T10:42:56.738Z,13.88
2023-05-17T10:45:24.459Z,13.87
2023-05-17T10:47:52.775Z,13.77
2023-05-17T10:50:20.651Z,13.72
2023-05-17T10:52:48.423Z,13.70
2023-05-17T10:55:16.264Z,13.68
2023-05-17T10:57:51.122Z,13.64
2023-05-17T11:00:19.294Z,13.59
2023-05-17T11:02:49.228Z,13.59
2023-05-17T11:05:17.193Z,13.66
2023-05-17T11:07:45.058Z,13.65
2023-05-17T11:10:14.174Z,13.58
2023-05-17T11:12:43.075Z,13.53
2023-05-17T11:15:10.913Z,13.55
2023-05-17T11:17:38.829Z,13.52
2023-05-17T11:20:07.523Z,13.45
2023-05-17T11:22:37.134Z,13.42
2023-05-17T11:25:04.802Z,13.43
2023-05-17T11:27:32.493Z,13.45
2023-05-17T11:30:00.415Z,13.42
2023-05-17T11:32:28.154Z,13.38
2023-05-17T11:34:56.052Z,13.38
2023-05-17T11:37:23.724Z,13.38
2023-05-17T11:39:51.407Z,13.40
2023-05-17T11:42:19.070Z,13.39
2023-05-17T11:44:46.716Z,13.34
2023-05-17T11:47:14.389Z,13.34
2023-05-17T11:49:42.624Z,13.34
2023-05-17T11:52:10.400Z,13.33
2023-05-17T11:54:38.153Z,13.33
2023-05-17T11:57:06.016Z,13.34
2023-05-17T11:59:33.779Z,13.37
2023-05-17T12:02:01.553Z,13.40
2023-05-17T12:04:30.170Z,13.41
2023-05-17T12:06:59.981Z,13.39
2023-05-17T12:09:27.909Z,13.37
2023-05-17T12:11:56.698Z,13.38
2023-05-17T12:14:24.565Z,13.39
2023-05-17T12:16:58.589Z,13.39
2023-05-17T12:19:30.032Z,13.37
2023-05-17T12:21:57.995Z,13.35
2023-05-17T12:24:25.789Z,13.36
2023-05-17T12:26:53.683Z,13.39
2023-05-17T12:29:23.260Z,13.39
2023-05-17T12:31:51.114Z,13.40
2023-05-17T12:34:19.065Z,13.41
2023-05-17T12:36:46.930Z,13.46
2023-05-17T12:39:14.798Z,13.50
2023-05-17T12:41:42.560Z,13.59
2023-05-17T12:46:41.160Z,13.56
2023-05-17T12:49:09.125Z,13.54
2023-05-17T12:51:37.305Z,13.50
2023-05-17T12:54:05.068Z,13.53
2023-05-17T12:56:32.828Z,13.53
2023-05-17T12:59:00.846Z,13.53
2023-05-17T13:01:28.667Z,13.54
2023-05-17T13:03:56.502Z,13.60
2023-05-17T13:06:24.504Z,13.63
2023-05-17T13:08:52.338Z,13.59
2023-05-17T13:11:20.144Z,13.56
2023-05-17T13:13:47.903Z,13.50
2023-05-17T13:16:15.790Z,13.45
2023-05-17T13:18:43.727Z,13.48
2023-05-17T13:21:11.608Z,13.45
2023-05-17T13:23:39.374Z,13.43
2023-05-17T13:26:07.138Z,13.41
2023-05-17T13:28:34.900Z,13.40
2023-05-17T13:31:02.668Z,13.42
2023-05-17T13:33:31.651Z,13.43
2023-05-17T13:35:59.528Z,13.43
2023-05-17T13:38:27.299Z,13.43
2023-05-17T13:40:55.052Z,13.47
2023-05-17T13:43:22.940Z,13.47
2023-05-17T13:45:54.731Z,13.41
2023-05-17T13:48:22.621Z,13.36
2023-05-17T13:50:51.231Z,13.33
2023-05-17T13:53:18.898Z,13.30
2023-05-17T13:55:46.758Z,13.31
2023-05-17T13:58:14.624Z,13.25
2023-05-17T14:00:44.334Z,13.19
2023-05-17T14:03:15.210Z,13.17
2023-05-17T14:05:43.674Z,13.16
2023-05-17T14:08:13.069Z,13.19
2023-05-17T14:10:40.762Z,13.15
2023-05-17T14:13:08.684Z,13.09
2023-05-17T14:15:38.606Z,13.01
2023-05-17T14:18:06.622Z,12.91
2023-05-17T14:20:34.792Z,12.83
2023-05-17T14:23:02.515Z,12.74
2023-05-17T14:25:30.380Z,12.64
2023-05-17T14:27:58.143Z,12.50
2023-05-17T14:30:25.897Z,12.41
2023-05-17T14:32:53.854Z,12.31
2023-05-17T14:35:21.734Z,12.21
2023-05-17T14:37:49.501Z,12.11
2023-05-17T14:40:17.270Z,12.06
2023-05-17T14:42:45.042Z,12.08
2023-05-17T14:45:13.000Z,12.12
2023-05-17T14:47:40.823Z,12.13
2023-05-17T14:50:08.629Z,12.11
2023-05-17T14:52:36.697Z,12.08
2023-05-17T14:55:04.566Z,12.05
2023-05-17T14:57:32.329Z,11.97
2023-05-17T15:00:01.237Z,11.86
2023-05-17T15:02:29.448Z,11.80
2023-05-17T15:04:57.463Z,11.77
2023-05-17T15:07:25.332Z,11.71
2023-05-17T15:09:53.297Z,11.67
2023-05-17T15:12:21.166Z,11.68
2023-05-17T15:14:49.035Z,11.69
2023-05-17T15:17:17.103Z,11.68
2023-05-17T15:19:45.013Z,11.65
2023-05-17T15:22:13.264Z,11.62
2023-05-17T15:24:41.120Z,11.64
2023-05-17T15:27:09.188Z,11.62
2023-05-17T15:29:39.103Z,11.52
2023-05-17T15:32:06.973Z,11.49
2023-05-17T15:34:34.732Z,11.49
2023-05-17T15:37:02.612Z,11.47
2023-05-17T15:39:30.368Z,11.44
2023-05-17T15:41:58.236Z,11.43
2023-05-17T15:44:26.103Z,11.47
2023-05-17T15:46:53.861Z,11.49
2023-05-17T15:49:28.871Z,11.51
2023-05-17T15:51:56.662Z,11.47
2023-05-17T15:54:24.529Z,11.39
2023-05-17T15:56:52.395Z,11.36
2023-05-17T15:59:20.060Z,11.38
2023-05-17T16:01:47.924Z,11.33
2023-05-17T16:04:16.462Z,11.23
2023-05-17T16:06:44.645Z,11.15
2023-05-17T16:09:14.613Z,11.08
2023-05-17T16:11:42.460Z,11.07
2023-05-17T16:14:10.430Z,11.05
2023-05-17T16:16:38.197Z,10.99
2023-05-17T16:19:06.541Z,10.93
2023-05-17T16:21:35.975Z,10.89
2023-05-17T16:24:04.459Z,10.89
2023-05-17T16:26:32.436Z,10.86
2023-05-17T16:29:01.029Z,10.80
2023-05-17T16:31:28.819Z,10.76
2023-05-17T16:33:56.832Z,10.72
2023-05-17T16:36:25.435Z,10.70
2023-05-17T16:38:53.395Z,10.65
2023-05-17T16:41:22.192Z,10.58
2023-05-17T16:43:49.980Z,10.50
2023-05-17T16:46:19.367Z,10.45
2023-05-17T16:48:47.119Z,10.44
2023-05-17T16:51:15.089Z,10.42
2023-05-17T16:53:42.867Z,10.38
2023-05-17T16:56:10.719Z,10.35
2023-05-17T16:58:38.893Z,10.29
2023-05-17T17:01:06.868Z,10.28
2023-05-17T17:03:34.717Z,10.22
2023-05-17T17:09:18.791Z,10.11
2023-05-17T17:11:46.764Z,10.10
2023-05-17T17:14:14.625Z,10.09
2023-05-17T17:16:42.454Z,10.02
2023-05-17T17:19:10.410Z,9.98
2023-05-17T17:21:38.356Z,9.95
2023-05-17T17:24:06.250Z,9.98
2023-05-17T17:26:35.702Z,9.99
2023-05-17T17:29:04.285Z,9.96
2023-05-17T17:31:32.353Z,9.91
2023-05-17T17:34:00.221Z,9.93
2023-05-17T17:36:28.091Z,9.95
2023-05-17T17:38:55.958Z,9.98
2023-05-17T17:41:23.744Z,9.97
2023-05-17T17:43:51.441Z,9.93
2023-05-17T17:46:19.172Z,9.89
2023-05-17T17:48:46.916Z,9.88
2023-05-17T17:51:14.642Z,9.87
2023-05-17T17:53:42.378Z,9.85
2023-05-17T17:56:10.086Z,9.81
2023-05-17T17:58:37.770Z,9.77
2023-05-17T18:01:05.712Z,9.77
2023-05-17T18:03:33.419Z,9.74
2023-05-17T18:06:01.371Z,9.68
2023-05-17T18:08:29.041Z,9.63
2023-05-17T18:10:56.699Z,9.61
2023-05-17T18:13:24.417Z,9.63
2023-05-17T18:15:52.084Z,9.63
2023-05-17T18:18:22.196Z,9.61
2023-05-17T18:20:49.912Z,9.61
2023-05-17T18:23:17.571Z,9.64
2023-05-17T18:25:47.170Z,9.68
2023-05-17T18:28:14.837Z,9.70
2023-05-17T18:30:42.531Z,9.69
2023-05-17T18:33:10.223Z,9.67
2023-05-17T18:35:37.989Z,9.67
2023-05-17T18:38:05.913Z,9.70
2023-05-17T18:40:33.578Z,9.73
2023-05-17T18:43:01.534Z,9.70
2023-05-17T18:45:29.272Z,9.67
2023-05-17T18:47:56.971Z,9.66
2023-05-17T18:50:24.664Z,9.67
2023-05-17T18:52:52.365Z,9.68
2023-05-17T18:55:20.060Z,9.66
2023-05-17T18:57:47.797Z,9.66
2023-05-17T19:00:15.445Z,9.67
2023-05-17T19:02:43.200Z,9.70
2023-05-17T19:05:11.011Z,9.69
2023-05-17T19:07:38.705Z,9.69
2023-05-17T19:10:06.368Z,9.72
2023-05-17T19:12:35.611Z,9.76
2023-05-17T19:15:04.077Z,9.80
2023-05-17T19:17:31.922Z,9.78
2023-05-17T19:19:59.836Z,9.73
2023-05-17T19:22:27.477Z,9.73
2023-05-17T19:24:55.112Z,9.78
2023-05-17T19:27:22.784Z,9.76
2023-05-17T19:29:50.475Z,9.76
2023-05-17T19:32:19.993Z,9.77
2023-05-17T19:34:47.659Z,9.83
2023-05-17T19:37:15.474Z,9.85
2023-05-17T19:39:43.150Z,9.84
2023-05-17T19:42:10.951Z,9.84
2023-05-17T19:44:38.616Z,9.87
2023-05-17T19:47:06.295Z,9.94
2023-05-17T19:49:34.026Z,9.95
2023-05-17T19:52:01.756Z,9.95
2023-05-17T19:54:29.767Z,9.96
2023-05-17T19:56:57.645Z,9.96
2023-05-17T19:59:25.386Z,9.99
2023-05-17T20:01:53.079Z,10.01
2023-05-17T20:04:20.736Z,10.02
2023-05-17T20:06:48.422Z,10.01
2023-05-17T20:09:16.446Z,10.00
2023-05-17T20:11:44.165Z,10.00
2023-05-17T20:14:12.485Z,10.03
2023-05-17T20:16:40.290Z,10.06
2023-05-17T20:19:08.146Z,10.04
2023-05-17T20:21:36.293Z,10.02
2023-05-17T20:24:06.912Z,10.02
2023-05-17T20:26:37.847Z,10.06
2023-05-17T20:29:07.465Z,10.09
2023-05-17T20:31:35.439Z,10.10
2023-05-17T20:34:04.443Z,10.09
2023-05-17T20:36:32.431Z,10.08
2023-05-17T20:39:00.141Z,10.08
2023-05-17T20:41:27.910Z,10.10
2023-05-17T20:43:55.987Z,10.13
2023-05-17T20:46:23.818Z,10.11
2023-05-17T20:48:53.765Z,10.05
2023-05-17T20:51:22.482Z,10.02
2023-05-17T20:53:50.152Z,10.03
2023-05-17T20:56:19.432Z,10.03
2023-05-17T20:58:47.202Z,10.03
2023-05-17T21:01:14.987Z,10.01
2023-05-17T21:03:43.445Z,10.02
2023-05-17T21:06:11.489Z,10.06
2023-05-17T21:08:39.157Z,10.05
2023-05-17T21:11:06.984Z,10.00
2023-05-17T21:13:34.796Z,9.95
2023-05-17T21:16:02.814Z,9.95
2023-05-17T21:18:30.941Z,9.96
2023-05-17T21:20:58.697Z,9.95
2023-05-17T21:23:26.463Z,9.89
2023-05-17T21:25:54.330Z,9.89
2023-05-17T21:28:22.201Z,9.95
2023-05-17T21:30:49.969Z,10.00
2023-05-17T21:33:17.639Z,10.04
2023-05-17T21:35:45.485Z,10.06
2023-05-17T21:38:13.218Z,10.08
2023-05-17T21:40:40.934Z,10.14
2023-05-17T21:43:09.936Z,10.20
2023-05-17T21:45:37.784Z,10.26
2023-05-17T21:48:05.592Z,10.30
2023-05-17T21:50:33.334Z,10.34
2023-05-17T21:53:01.065Z,10.37
2023-05-17T21:55:40.897Z,10.44
2023-05-17T21:58:16.691Z,10.45
2023-05-17T22:00:44.360Z,10.43
2023-05-17T22:03:12.240Z,10.43
2023-05-17T22:05:40.071Z,10.45
2023-05-17T22:08:07.768Z,10.51
2023-05-17T22:10:35.455Z,10.53
2023-05-17T22:13:03.188Z,10.53
2023-05-17T22:15:31.148Z,10.50
2023-05-17T22:17:58.935Z,10.45
2023-05-17T22:20:29.716Z,10.47
2023-05-17T22:22:57.741Z,10.50
2023-05-17T22:25:25.417Z,10.48
2023-05-17T22:27:53.192Z,10.46
2023-05-17T22:30:20.927Z,10.44
2023-05-17T22:32:48.683Z,10.45
2023-05-17T22:35:16.459Z,10.51
2023-05-17T22:37:45.526Z,10.53
2023-05-17T22:40:13.235Z,10.50
2023-05-17T22:42:41.967Z,10.47
2023-05-17T22:45:09.630Z,10.42
2023-05-17T22:47:37.341Z,10.43
2023-05-17T22:50:04.995Z,10.44
2023-05-17T22:52:32.852Z,10.46
2023-05-17T22:55:00.592Z,10.49
2023-05-17T22:57:28.364Z,10.50
2023-05-17T22:59:56.087Z,10.54
2023-05-17T23:02:23.890Z,10.60
2023-05-17T23:04:51.632Z,10.60
2023-05-17T23:07:19.292Z,10.56
2023-05-17T23:09:47.382Z,10.54
2023-05-17T23:12:17.491Z,10.55
2023-05-17T23:14:45.126Z,10.58
2023-05-17T23:17:12.788Z,10.59
2023-05-17T23:19:40.786Z,10.55
2023-05-17T23:22:08.553Z,10.53
2023-05-17T23:24:38.999Z,10.53
2023-05-17T23:27:10.297Z,10.56
2023-05-17T23:29:41.162Z,10.62
2023-05-17T23:32:08.951Z,10.59
2023-05-17T23:34:36.823Z,10.56
2023-05-17T23:37:04.492Z,10.49
2023-05-17T23:39:32.147Z,10.44
2023-05-17T23:42:00.102Z,10.42
2023-05-17T23:44:27.943Z,10.42
2023-05-17T23:46:56.522Z,10.43
2023-05-17T23:49:24.288Z,10.44
2023-05-17T23:51:52.053Z,10.41
2023-05-17T23:54:20.333Z,10.38
2023-05-17T23:56:48.102Z,10.32
2023-05-17T23:59:15.958Z,10.26
